Time;durP1;ratioP1;P1;durP2;ratioP2;P2;SDS_P1;SDS_P2;PMS_P1;PMS_P2;Temp;Humidity;BMP_temperature;BMP_pressure;BME280_temperature;BME280_humidity;BME280_pressure;Samples;Min_cycle;Max_cycle;Signal;HPM_P1;HPM_P2
2023/12/08 00:00:54;;;;;;;8.43;6.03;;;5.10;79.30;;;;;;4981599;28;20039;-75
2023/12/08 00:03:20;;;;;;;9.75;7.38;;;5.10;79.30;;;;;;4989054;28;20035;-75
2023/12/08 00:05:46;;;;;;;8.57;6.60;;;5.10;79.30;;;;;;5008730;28;20042;-75
2023/12/08 00:08:12;;;;;;;8.38;6.30;;;5.10;79.30;;;;;;4984582;28;20395;-75
2023/12/08 00:10:38;;;;;;;8.45;6.35;;;5.10;79.20;;;;;;4985224;28;20039;-75
2023/12/08 00:13:04;;;;;;;9.20;6.43;;;5.10;79.20;;;;;;4986545;28;20035;-75
2023/12/08 00:15:29;;;;;;;9.18;6.40;;;5.10;79.30;;;;;;4968717;28;20031;-76
2023/12/08 00:17:55;;;;;;;8.32;6.07;;;5.10;79.30;;;;;;4997513;28;20038;-76
2023/12/08 00:20:21;;;;;;;8.90;6.95;;;5.10;79.20;;;;;;4997174;28;20049;-76
2023/12/08 00:22:47;;;;;;;8.05;6.20;;;5.10;79.20;;;;;;4985704;28;20088;-76
2023/12/08 00:25:13;;;;;;;8.93;6.57;;;5.10;79.20;;;;;;4987479;28;20076;-76
2023/12/08 00:27:39;;;;;;;8.13;6.45;;;5.20;79.20;;;;;;4988620;28;20105;-76
2023/12/08 00:30:05;;;;;;;8.57;6.00;;;5.10;79.20;;;;;;4990552;28;20165;-76
2023/12/08 00:32:31;;;;;;;8.20;6.00;;;5.20;79.30;;;;;;4986261;28;20112;-77
2023/12/08 00:34:57;;;;;;;8.65;6.25;;;5.20;79.20;;;;;;4982703;28;20030;-76
2023/12/08 00:37:22;;;;;;;8.20;6.30;;;5.20;79.20;;;;;;4986490;28;20053;-77
2023/12/08 00:39:48;;;;;;;7.50;5.85;;;5.20;79.30;;;;;;4988402;28;20042;-76
2023/12/08 00:42:14;;;;;;;8.43;6.15;;;5.20;79.30;;;;;;4981666;28;20038;-76
2023/12/08 00:44:40;;;;;;;8.57;6.32;;;5.20;79.30;;;;;;4971067;28;20030;-76
2023/12/08 00:47:05;;;;;;;7.90;5.93;;;5.20;79.20;;;;;;4987403;28;20034;-76
2023/12/08 00:49:31;;;;;;;8.93;6.13;;;5.20;79.20;;;;;;4989285;28;20031;-77
2023/12/08 00:51:57;;;;;;;8.40;6.07;;;5.20;79.20;;;;;;4988609;28;20126;-76
2023/12/08 00:54:23;;;;;;;8.02;6.13;;;5.20;79.30;;;;;;4986721;28;20478;-76
2023/12/08 00:56:48;;;;;;;7.85;5.78;;;5.20;79.30;;;;;;4971341;28;20046;-76
2023/12/08 00:59:14;;;;;;;8.50;6.10;;;5.20;79.30;;;;;;4942500;28;20034;-76
2023/12/08 01:01:40;;;;;;;8.52;6.40;;;5.20;79.30;;;;;;4984017;28;20044;-76
2023/12/08 01:04:06;;;;;;;9.23;6.55;;;5.20;79.30;;;;;;5001918;28;20129;-76
2023/12/08 01:06:31;;;;;;;8.13;5.82;;;5.20;79.30;;;;;;4973619;28;20019;-77
2023/12/08 01:08:57;;;;;;;8.85;6.20;;;5.20;79.30;;;;;;4938021;28;20122;-76
2023/12/08 01:11:23;;;;;;;7.65;5.78;;;5.20;79.30;;;;;;4975069;28;20110;-76
2023/12/08 01:13:49;;;;;;;7.90;6.25;;;5.20;79.40;;;;;;4987111;28;20475;-77
2023/12/08 01:16:15;;;;;;;7.20;5.63;;;5.20;79.30;;;;;;4988822;28;20022;-76
2023/12/08 01:18:41;;;;;;;8.15;5.97;;;5.30;79.40;;;;;;4966761;28;20053;-76
2023/12/08 01:21:06;;;;;;;8.15;6.25;;;5.30;79.40;;;;;;4970803;28;20479;-76
2023/12/08 01:23:32;;;;;;;8.43;5.85;;;5.20;79.30;;;;;;4962478;28;20034;-77
2023/12/08 01:25:58;;;;;;;7.70;5.68;;;5.30;79.40;;;;;;4970837;28;20434;-76
2023/12/08 01:28:24;;;;;;;7.40;5.72;;;5.20;79.30;;;;;;4958633;28;20033;-76
2023/12/08 01:30:50;;;;;;;7.07;5.40;;;5.30;79.30;;;;;;4971679;28;20044;-76
2023/12/08 01:33:16;;;;;;;7.45;5.80;;;5.30;79.30;;;;;;4972713;28;20030;-76
2023/12/08 01:35:41;;;;;;;7.22;5.32;;;5.30;79.30;;;;;;4968512;28;20035;-76
2023/12/08 01:38:08;;;;;;;8.05;5.78;;;5.30;79.20;;;;;;4968078;28;20042;-76
2023/12/08 01:40:34;;;;;;;7.80;5.65;;;5.30;79.20;;;;;;4972611;28;20041;-76
2023/12/08 01:42:59;;;;;;;7.13;5.13;;;5.30;79.20;;;;;;4988659;28;20522;-76
2023/12/08 01:45:25;;;;;;;8.73;6.35;;;5.30;79.20;;;;;;4987450;28;20053;-77
2023/12/08 01:47:51;;;;;;;7.18;5.15;;;5.30;79.20;;;;;;4989925;28;20125;-76
2023/12/08 01:50:18;;;;;;;7.35;5.60;;;5.30;79.20;;;;;;4966057;28;20035;-77
2023/12/08 01:52:44;;;;;;;7.25;5.35;;;5.30;79.30;;;;;;4981496;28;20388;-76
2023/12/08 01:55:11;;;;;;;6.47;5.57;;;5.30;79.20;;;;;;5018984;28;20133;-76
2023/12/08 01:57:37;;;;;;;7.28;5.25;;;5.30;79.30;;;;;;4959453;28;20057;-76
2023/12/08 02:00:04;;;;;;;8.60;6.10;;;5.30;79.20;;;;;;4956933;28;20030;-76
2023/12/08 02:02:34;;;;;;;8.00;5.75;;;5.40;79.30;;;;;;5014373;28;20130;-76
2023/12/08 02:05:02;;;;;;;6.35;5.55;;;5.40;79.30;;;;;;5001995;28;20542;-76
2023/12/08 02:07:28;;;;;;;7.03;5.15;;;5.30;79.30;;;;;;4997065;28;20038;-76
2023/12/08 02:09:57;;;;;;;7.32;5.40;;;5.40;79.30;;;;;;4969726;28;20042;-77
2023/12/08 02:12:23;;;;;;;7.07;4.97;;;5.40;79.30;;;;;;4970160;28;20031;-76
2023/12/08 02:14:51;;;;;;;6.60;5.03;;;5.40;79.30;;;;;;4972486;28;20045;-76
2023/12/08 02:17:24;;;;;;;7.20;5.40;;;5.40;79.30;;;;;;4972545;28;20027;-76
2023/12/08 02:19:52;;;;;;;7.28;5.15;;;5.40;79.40;;;;;;4984959;28;20096;-76
2023/12/08 02:22:21;;;;;;;7.50;5.35;;;5.40;79.30;;;;;;4984443;28;20036;-76
2023/12/08 02:24:47;;;;;;;6.38;4.97;;;5.40;79.40;;;;;;4981926;28;20062;-76
2023/12/08 02:27:12;;;;;;;7.00;5.22;;;5.40;79.30;;;;;;4956579;28;20073;-76
2023/12/08 02:29:38;;;;;;;7.15;5.45;;;5.40;79.30;;;;;;4975871;28;20077;-77
2023/12/08 02:32:27;;;;;;;7.50;5.60;;;5.40;79.20;;;;;;4977858;28;20042;-76
2023/12/08 02:34:53;;;;;;;7.30;5.18;;;5.40;79.30;;;;;;4994024;28;20093;-75
2023/12/08 02:37:21;;;;;;;7.00;5.05;;;5.40;79.20;;;;;;4993748;28;20034;-74
2023/12/08 02:39:48;;;;;;;6.88;5.07;;;5.40;79.20;;;;;;4977946;28;20029;-76
2023/12/08 02:42:14;;;;;;;6.57;5.03;;;5.40;79.20;;;;;;4993929;28;20121;-76
2023/12/08 02:44:40;;;;;;;7.15;5.30;;;5.40;79.20;;;;;;4994899;28;20514;-77
2023/12/08 02:47:06;;;;;;;7.68;5.53;;;5.40;79.20;;;;;;4993585;28;20052;-77
2023/12/08 02:49:34;;;;;;;6.78;5.13;;;5.40;79.20;;;;;;4993780;28;20394;-76
2023/12/08 02:51:59;;;;;;;6.90;5.18;;;5.40;79.20;;;;;;4993606;28;20034;-77
2023/12/08 02:54:25;;;;;;;7.78;5.72;;;5.40;79.20;;;;;;4993409;28;20030;-76
2023/12/08 02:56:51;;;;;;;7.38;5.43;;;5.40;79.20;;;;;;4993657;28;20073;-76
2023/12/08 02:59:17;;;;;;;7.93;5.65;;;5.40;79.20;;;;;;4977299;28;20034;-76
2023/12/08 03:01:42;;;;;;;7.57;5.15;;;5.40;79.20;;;;;;4977202;28;20133;-75
2023/12/08 03:04:08;;;;;;;7.60;5.30;;;5.40;79.20;;;;;;4994031;28;20456;-76
2023/12/08 03:06:34;;;;;;;6.93;5.15;;;5.50;79.30;;;;;;4993410;28;20492;-76
2023/12/08 03:08:59;;;;;;;6.85;4.80;;;5.50;79.30;;;;;;4993049;28;20406;-76
2023/12/08 03:11:25;;;;;;;7.50;5.50;;;5.50;79.30;;;;;;4977360;28;20181;-76
2023/12/08 03:13:51;;;;;;;6.57;5.10;;;5.40;79.30;;;;;;4977606;28;20062;-75
2023/12/08 03:16:16;;;;;;;6.65;4.90;;;5.50;79.30;;;;;;4993238;28;20022;-77
2023/12/08 03:18:42;;;;;;;7.65;5.30;;;5.40;79.30;;;;;;4993251;28;20031;-76
2023/12/08 03:21:08;;;;;;;6.90;5.40;;;5.50;79.30;;;;;;4977079;28;20046;-76
2023/12/08 03:23:34;;;;;;;6.60;5.13;;;5.40;79.30;;;;;;4976959;28;20026;-76
2023/12/08 03:26:00;;;;;;;6.65;5.07;;;5.40;79.30;;;;;;4976869;28;20031;-76
2023/12/08 03:28:26;;;;;;;6.50;4.88;;;5.40;79.30;;;;;;4994507;28;20030;-77
2023/12/08 03:30:51;;;;;;;7.22;5.40;;;5.50;79.30;;;;;;4992913;28;20132;-76
2023/12/08 03:33:17;;;;;;;7.43;4.90;;;5.40;79.30;;;;;;4992717;28;20022;-77
2023/12/08 03:35:43;;;;;;;7.60;5.53;;;5.50;79.40;;;;;;4993479;28;20026;-76
2023/12/08 03:38:08;;;;;;;6.63;5.43;;;5.50;79.40;;;;;;4993987;28;20046;-76
2023/12/08 03:40:34;;;;;;;6.75;4.90;;;5.50;79.30;;;;;;4993578;28;20038;-76
2023/12/08 03:43:00;;;;;;;6.95;4.82;;;5.50;79.30;;;;;;4992842;28;20039;-77
2023/12/08 03:45:26;;;;;;;6.72;5.20;;;5.50;79.30;;;;;;4976662;28;20031;-76
2023/12/08 03:47:51;;;;;;;5.60;4.40;;;5.50;79.40;;;;;;4976580;28;20391;-76
2023/12/08 03:50:17;;;;;;;6.80;5.10;;;5.50;79.30;;;;;;4992785;28;20151;-75
2023/12/08 03:52:43;;;;;;;7.25;5.25;;;5.50;79.30;;;;;;4976562;28;20069;-78
2023/12/08 03:55:08;;;;;;;6.00;4.68;;;5.50;79.20;;;;;;4960762;28;20031;-76
2023/12/08 03:57:34;;;;;;;6.75;5.40;;;5.50;79.20;;;;;;4976104;28;20094;-77
2023/12/08 04:00:00;;;;;;;6.95;5.10;;;5.50;79.20;;;;;;4992139;28;20044;-76
2023/12/08 04:02:26;;;;;;;6.68;5.07;;;5.50;79.30;;;;;;4993334;28;20076;-77
2023/12/08 04:04:51;;;;;;;7.30;4.90;;;5.50;79.30;;;;;;4993418;28;20416;-77
2023/12/08 04:07:17;;;;;;;7.20;5.75;;;5.50;79.20;;;;;;4992906;28;20084;-76
2023/12/08 04:09:43;;;;;;;7.00;5.00;;;5.50;79.20;;;;;;4992614;28;20467;-76
2023/12/08 04:12:09;;;;;;;7.45;5.55;;;5.50;79.20;;;;;;4976385;28;20042;-77
2023/12/08 04:14:34;;;;;;;7.60;5.55;;;5.50;79.20;;;;;;4993375;28;20427;-76
2023/12/08 04:17:00;;;;;;;6.63;5.35;;;5.50;79.20;;;;;;4992542;28;20516;-76
2023/12/08 04:19:26;;;;;;;7.40;5.20;;;5.50;79.20;;;;;;4976177;28;20115;-74
2023/12/08 04:21:51;;;;;;;6.82;5.10;;;5.50;79.20;;;;;;4992431;28;20034;-77
2023/12/08 04:24:17;;;;;;;6.88;5.25;;;5.50;79.20;;;;;;4992582;28;20112;-76
2023/12/08 04:26:44;;;;;;;7.13;5.55;;;5.50;79.20;;;;;;4976849;28;20033;-75
2023/12/08 04:29:10;;;;;;;7.22;5.43;;;5.50;79.30;;;;;;4992179;28;20036;-76
2023/12/08 04:31:35;;;;;;;7.20;5.55;;;5.50;79.30;;;;;;4976957;28;20030;-76
2023/12/08 04:34:01;;;;;;;6.20;4.75;;;5.50;79.30;;;;;;4976199;28;20034;-76
2023/12/08 04:36:27;;;;;;;7.28;5.57;;;5.50;79.30;;;;;;4992237;28;20062;-76
2023/12/08 04:38:52;;;;;;;7.47;5.70;;;5.50;79.30;;;;;;4992537;28;20038;-76
2023/12/08 04:41:18;;;;;;;8.05;6.07;;;5.50;79.30;;;;;;4975991;28;20064;-73
2023/12/08 04:43:44;;;;;;;7.68;5.78;;;5.50;79.30;;;;;;4992836;28;20035;-77
2023/12/08 04:46:10;;;;;;;7.97;5.80;;;5.50;79.30;;;;;;4976216;28;20034;-77
2023/12/08 04:48:35;;;;;;;7.90;5.65;;;5.50;79.30;;;;;;4992150;28;20122;-76
2023/12/08 04:51:02;;;;;;;7.20;5.45;;;5.50;79.40;;;;;;4976003;28;20470;-76
2023/12/08 04:53:27;;;;;;;7.45;5.60;;;5.50;79.40;;;;;;4975744;28;20027;-76
2023/12/08 04:55:53;;;;;;;6.78;5.25;;;5.60;79.40;;;;;;4992464;28;20154;-76
2023/12/08 04:58:20;;;;;;;7.82;5.60;;;5.60;79.40;;;;;;4975636;28;20137;-76
2023/12/08 05:00:47;;;;;;;7.95;5.72;;;5.60;79.40;;;;;;4975721;28;20511;-77
2023/12/08 05:03:13;;;;;;;7.13;5.43;;;5.60;79.40;;;;;;4992616;28;20130;-76
2023/12/08 05:05:39;;;;;;;7.72;5.85;;;5.60;79.40;;;;;;4991933;28;20117;-76
2023/12/08 05:08:05;;;;;;;7.45;5.70;;;5.60;79.40;;;;;;4975829;28;20038;-76
2023/12/08 05:10:31;;;;;;;8.60;6.13;;;5.60;79.40;;;;;;4979278;28;20038;-77
2023/12/08 05:12:57;;;;;;;7.18;5.65;;;5.60;79.40;;;;;;4979232;28;20070;-77
2023/12/08 05:15:23;;;;;;;8.30;6.15;;;5.60;79.40;;;;;;4995683;28;20061;-76
2023/12/08 05:17:49;;;;;;;8.30;5.90;;;5.60;79.40;;;;;;4997042;28;20038;-77
2023/12/08 05:20:15;;;;;;;6.93;5.25;;;5.60;79.40;;;;;;4979269;28;20520;-77
2023/12/08 05:22:41;;;;;;;8.10;5.90;;;5.60;79.50;;;;;;4979156;28;20038;-76
2023/12/08 05:25:08;;;;;;;7.70;5.65;;;5.60;79.50;;;;;;4995172;28;20089;-76
2023/12/08 05:27:34;;;;;;;7.28;5.43;;;5.60;79.50;;;;;;4995779;28;20027;-76
2023/12/08 05:29:59;;;;;;;8.15;6.05;;;5.60;79.40;;;;;;4979050;28;20062;-76
2023/12/08 05:32:25;;;;;;;7.22;5.45;;;5.60;79.40;;;;;;4995334;28;20444;-76
2023/12/08 05:34:51;;;;;;;8.23;5.65;;;5.60;79.50;;;;;;4995621;28;20427;-76
2023/12/08 05:37:16;;;;;;;7.93;6.10;;;5.60;79.40;;;;;;4962878;28;20034;-76
2023/12/08 05:39:42;;;;;;;7.70;5.75;;;5.60;79.50;;;;;;4979157;28;20373;-76
2023/12/08 05:42:08;;;;;;;7.55;5.93;;;5.60;79.50;;;;;;4978872;28;20042;-75
2023/12/08 05:44:34;;;;;;;7.15;5.03;;;5.60;79.40;;;;;;4978953;28;20034;-75
2023/12/08 05:46:59;;;;;;;7.40;5.60;;;5.60;79.40;;;;;;4994764;28;20394;-77
2023/12/08 05:49:25;;;;;;;7.13;5.72;;;5.60;79.40;;;;;;4995111;28;20042;-76
2023/12/08 05:51:51;;;;;;;8.15;5.95;;;5.60;80.00;;;;;;4994942;28;20035;-76
2023/12/08 05:54:17;;;;;;;7.47;5.90;;;5.60;79.40;;;;;;4978576;28;20114;-76
2023/12/08 05:56:42;;;;;;;8.02;5.85;;;5.60;79.40;;;;;;4978322;28;20070;-76
2023/12/08 05:59:08;;;;;;;7.93;5.85;;;5.60;79.40;;;;;;4978243;28;20042;-73
2023/12/08 06:01:34;;;;;;;7.72;5.70;;;5.60;79.50;;;;;;4995279;28;20446;-76
2023/12/08 06:04:00;;;;;;;7.30;5.55;;;5.60;79.40;;;;;;4979111;28;20358;-76
2023/12/08 06:06:27;;;;;;;7.22;5.47;;;5.60;79.40;;;;;;4978393;28;20470;-74
2023/12/08 06:08:53;;;;;;;8.40;5.60;;;5.60;79.40;;;;;;4995473;28;20454;-78
2023/12/08 06:11:19;;;;;;;8.85;6.30;;;5.60;79.40;;;;;;4994539;28;20042;-76
2023/12/08 06:13:45;;;;;;;8.77;6.18;;;5.60;79.40;;;;;;4978351;28;20395;-76
2023/12/08 06:16:11;;;;;;;8.13;5.88;;;5.60;79.40;;;;;;4994339;28;20034;-77
2023/12/08 06:18:36;;;;;;;8.30;6.40;;;5.60;79.40;;;;;;4978000;28;20034;-75
2023/12/08 06:21:03;;;;;;;8.85;6.65;;;5.60;79.40;;;;;;4994948;28;20085;-76
2023/12/08 06:23:29;;;;;;;7.97;5.72;;;5.60;79.40;;;;;;4994419;28;20120;-76
2023/12/08 06:25:55;;;;;;;7.95;6.30;;;5.70;79.50;;;;;;4978297;28;20031;-76
2023/12/08 06:28:21;;;;;;;7.80;6.10;;;5.60;79.40;;;;;;4977809;28;20076;-76
2023/12/08 06:30:46;;;;;;;8.02;5.95;;;5.70;79.50;;;;;;4978300;28;20120;-76
2023/12/08 06:33:12;;;;;;;7.60;6.07;;;5.70;79.50;;;;;;4977888;28;20030;-75
2023/12/08 06:35:38;;;;;;;8.35;6.03;;;5.70;79.50;;;;;;4978403;28;20038;-74
2023/12/08 06:38:04;;;;;;;7.97;5.90;;;5.60;79.40;;;;;;4993695;28;20154;-76
2023/12/08 06:40:30;;;;;;;8.38;6.32;;;5.60;79.50;;;;;;4978368;28;20387;-75
2023/12/08 06:42:56;;;;;;;7.85;5.90;;;5.70;79.50;;;;;;4993985;28;20045;-77
2023/12/08 06:45:22;;;;;;;8.02;5.85;;;5.60;79.50;;;;;;4977835;28;20541;-75
2023/12/08 06:47:47;;;;;;;8.80;6.32;;;5.70;79.50;;;;;;4993938;28;20518;-75
2023/12/08 06:50:14;;;;;;;9.23;6.68;;;5.70;79.50;;;;;;4977421;28;20076;-77
2023/12/08 06:52:40;;;;;;;8.60;6.40;;;5.70;79.50;;;;;;4977637;28;20464;-74
2023/12/08 06:55:06;;;;;;;8.55;6.43;;;5.70;79.50;;;;;;4993281;28;20056;-76
2023/12/08 06:57:32;;;;;;;9.18;6.65;;;5.70;79.50;;;;;;4993198;28;20138;-76
2023/12/08 06:59:57;;;;;;;7.78;6.13;;;5.70;79.50;;;;;;4994886;28;20124;-77
2023/12/08 07:02:23;;;;;;;9.30;6.20;;;5.70;79.50;;;;;;4993584;28;20145;-76
2023/12/08 07:04:49;;;;;;;8.13;5.93;;;5.70;79.50;;;;;;4977454;28;20038;-76
2023/12/08 07:07:15;;;;;;;8.35;6.60;;;5.70;79.50;;;;;;4977165;28;20085;-78
2023/12/08 07:09:41;;;;;;;8.15;5.95;;;5.70;79.50;;;;;;4993501;28;20034;-77
2023/12/08 07:12:07;;;;;;;8.63;6.75;;;5.70;79.50;;;;;;4993901;28;20137;-76
2023/12/08 07:14:33;;;;;;;9.45;7.25;;;5.70;79.50;;;;;;4992871;28;20038;-75
2023/12/08 07:16:59;;;;;;;9.25;6.43;;;5.70;79.50;;;;;;4976983;28;20034;-76
2023/12/08 07:19:24;;;;;;;9.48;7.38;;;5.70;79.50;;;;;;4993088;28;20491;-75
2023/12/08 07:21:50;;;;;;;9.38;7.00;;;5.70;79.50;;;;;;4977387;28;20035;-76
2023/12/08 07:24:16;;;;;;;9.38;6.70;;;5.70;79.50;;;;;;4992913;28;20371;-75
2023/12/08 07:26:42;;;;;;;8.27;6.43;;;5.70;79.50;;;;;;4993341;28;20039;-76
2023/12/08 07:29:08;;;;;;;8.73;6.63;;;5.70;79.50;;;;;;4993107;28;20037;-76
2023/12/08 07:31:34;;;;;;;9.05;6.97;;;5.70;79.60;;;;;;4992571;28;20467;-76
2023/12/08 07:34:01;;;;;;;9.95;6.55;;;5.70;79.60;;;;;;4976688;28;20026;-76
2023/12/08 07:36:27;;;;;;;8.57;6.78;;;5.70;79.50;;;;;;4993091;28;20088;-76
2023/12/08 07:38:53;;;;;;;9.07;6.60;;;5.70;79.50;;;;;;4977499;28;20403;-76
2023/12/08 07:41:18;;;;;;;9.63;7.07;;;5.70;79.50;;;;;;4977328;28;20096;-75
2023/12/08 07:43:45;;;;;;;9.02;6.75;;;5.70;80.20;;;;;;4976843;28;20042;-75
2023/12/08 07:46:10;;;;;;;9.27;6.80;;;5.80;79.60;;;;;;4992905;28;20028;-76
2023/12/08 07:48:36;;;;;;;8.90;6.35;;;5.70;79.50;;;;;;4976298;28;20034;-75
2023/12/08 07:51:02;;;;;;;8.15;6.60;;;5.70;79.50;;;;;;4992568;28;20141;-76
2023/12/08 07:53:28;;;;;;;8.75;6.78;;;5.80;79.60;;;;;;4992816;28;20030;-77
2023/12/08 07:55:54;;;;;;;9.15;6.95;;;5.70;79.60;;;;;;4976873;28;20034;-75
2023/12/08 07:58:20;;;;;;;9.23;7.07;;;5.70;79.50;;;;;;4976467;28;20061;-75
2023/12/08 08:00:47;;;;;;;8.50;6.43;;;5.70;79.50;;;;;;4992674;28;20053;-75
2023/12/08 08:03:13;;;;;;;9.05;6.65;;;5.80;79.50;;;;;;4993246;28;20039;-76
2023/12/08 08:05:39;;;;;;;8.70;6.55;;;5.80;79.60;;;;;;4976699;28;20505;-75
2023/12/08 08:08:05;;;;;;;7.45;5.88;;;5.80;79.60;;;;;;4976294;28;20027;-74
2023/12/08 08:10:30;;;;;;;8.77;6.60;;;5.80;79.60;;;;;;4977122;28;20042;-77
2023/12/08 08:12:56;;;;;;;8.43;6.55;;;5.80;79.60;;;;;;4976335;28;20117;-75
2023/12/08 08:15:22;;;;;;;9.20;6.53;;;5.80;79.50;;;;;;4975878;28;20046;-76
2023/12/08 08:17:48;;;;;;;8.18;6.47;;;5.80;79.60;;;;;;4992301;28;20034;-76
2023/12/08 08:20:14;;;;;;;9.65;6.50;;;5.80;79.60;;;;;;4976137;28;20058;-76
2023/12/08 08:22:40;;;;;;;8.85;6.53;;;5.80;79.60;;;;;;4992438;28;20034;-75
2023/12/08 08:25:06;;;;;;;9.88;6.90;;;5.80;79.60;;;;;;4976183;28;20034;-75
2023/12/08 08:27:33;;;;;;;7.90;5.78;;;5.80;79.50;;;;;;4992786;28;20033;-75
2023/12/08 08:29:59;;;;;;;8.35;6.03;;;5.80;79.50;;;;;;4976167;28;20043;-76
2023/12/08 08:32:25;;;;;;;9.85;6.40;;;5.80;79.50;;;;;;4976977;28;20542;-79
2023/12/08 08:34:52;;;;;;;8.27;6.18;;;5.80;79.50;;;;;;4976323;28;20125;-77
2023/12/08 08:37:18;;;;;;;8.05;6.25;;;5.80;79.60;;;;;;4976036;28;20049;-75
2023/12/08 08:39:43;;;;;;;8.18;5.70;;;5.80;80.20;;;;;;4993001;28;20481;-76
2023/12/08 08:42:09;;;;;;;8.10;6.22;;;5.80;79.90;;;;;;4976026;28;20391;-76
2023/12/08 08:44:36;;;;;;;7.97;6.30;;;5.80;79.60;;;;;;4977643;28;20034;-76
2023/12/08 08:47:02;;;;;;;8.50;6.10;;;5.80;80.20;;;;;;4979970;28;20026;-77
2023/12/08 08:49:28;;;;;;;8.70;6.40;;;5.80;79.60;;;;;;4995802;28;20049;-76
2023/12/08 08:51:54;;;;;;;7.70;6.03;;;5.90;79.70;;;;;;4995981;28;20378;-76
2023/12/08 08:54:20;;;;;;;9.13;6.57;;;5.90;79.60;;;;;;4997462;28;20030;-76
2023/12/08 08:56:45;;;;;;;8.10;6.15;;;5.80;79.60;;;;;;4979884;28;20030;-76
2023/12/08 08:59:11;;;;;;;9.60;6.40;;;5.90;79.60;;;;;;4995512;28;20585;-76
2023/12/08 09:01:38;;;;;;;8.95;6.20;;;5.90;79.60;;;;;;4980168;28;20042;-76
2023/12/08 09:04:04;;;;;;;7.72;6.13;;;5.90;79.60;;;;;;4980550;28;20038;-76
2023/12/08 09:06:31;;;;;;;7.88;5.93;;;5.90;79.60;;;;;;4979629;28;20033;-75
2023/12/08 09:08:56;;;;;;;8.25;5.90;;;5.90;79.60;;;;;;4995728;28;20113;-76
2023/12/08 09:11:22;;;;;;;7.57;5.72;;;5.90;79.60;;;;;;4980241;28;20440;-76
2023/12/08 09:13:48;;;;;;;7.45;5.40;;;5.90;79.60;;;;;;4995222;28;20121;-76
2023/12/08 09:16:14;;;;;;;8.05;6.20;;;5.90;79.60;;;;;;4963592;28;20034;-76
2023/12/08 09:18:40;;;;;;;7.45;5.80;;;5.90;79.60;;;;;;4979348;28;20037;-76
2023/12/08 09:21:05;;;;;;;8.20;6.13;;;5.90;79.60;;;;;;4962932;28;20030;-76
2023/12/08 09:23:31;;;;;;;8.23;5.72;;;6.00;79.60;;;;;;4995562;28;20444;-76
2023/12/08 09:25:59;;;;;;;7.93;6.05;;;6.00;79.60;;;;;;4979808;28;20101;-76
2023/12/08 09:28:25;;;;;;;8.73;6.50;;;6.00;79.60;;;;;;4994920;28;20038;-76
2023/12/08 09:30:51;;;;;;;7.75;5.70;;;6.00;79.60;;;;;;4994847;28;20034;-74
2023/12/08 09:33:17;;;;;;;8.05;5.95;;;6.00;79.60;;;;;;4979193;28;20494;-76
2023/12/08 09:35:42;;;;;;;8.18;6.00;;;6.00;79.60;;;;;;4994932;28;20548;-76
2023/12/08 09:38:08;;;;;;;7.72;6.07;;;6.00;79.60;;;;;;4978926;28;20043;-76
2023/12/08 09:40:37;;;;;;;7.57;5.63;;;6.00;79.60;;;;;;4996106;28;20034;-76
2023/12/08 09:43:25;;;;;;;7.63;5.90;;;6.00;79.60;;;;;;4994800;28;20034;-76
2023/12/08 09:45:54;;;;;;;7.95;5.65;;;6.00;79.70;;;;;;4995705;28;20026;-76
2023/12/08 09:48:21;;;;;;;7.07;5.28;;;6.00;79.60;;;;;;4995298;28;20034;-76
2023/12/08 09:50:50;;;;;;;7.97;5.53;;;6.00;79.60;;;;;;4978714;28;20030;-76
2023/12/08 09:53:16;;;;;;;7.90;5.68;;;6.00;79.60;;;;;;4978313;28;20029;-76
2023/12/08 09:55:43;;;;;;;7.80;5.65;;;6.00;79.60;;;;;;4978727;28;20026;-76
2023/12/08 09:58:10;;;;;;;7.85;5.22;;;6.00;79.60;;;;;;4978164;28;20149;-76
2023/12/08 10:00:36;;;;;;;7.65;5.53;;;6.00;79.60;;;;;;4995905;28;20034;-76
2023/12/08 10:03:01;;;;;;;7.35;5.43;;;6.10;79.60;;;;;;4994853;28;20077;-75
2023/12/08 10:05:27;;;;;;;8.07;5.45;;;6.10;79.60;;;;;;4995138;28;20559;-76
2023/12/08 10:07:54;;;;;;;7.97;5.50;;;6.10;79.60;;;;;;4995934;28;20053;-73
2023/12/08 10:10:21;;;;;;;7.47;5.43;;;6.10;79.60;;;;;;4995528;28;20045;-76
2023/12/08 10:12:47;;;;;;;8.02;5.82;;;6.10;79.60;;;;;;4994562;28;20096;-74
2023/12/08 10:15:16;;;;;;;8.57;6.30;;;6.10;79.60;;;;;;4994890;28;20117;-77
2023/12/08 10:17:50;;;;;;;7.88;5.80;;;6.10;79.60;;;;;;4994598;28;20049;-75
2023/12/08 10:20:17;;;;;;;8.13;5.73;;;6.20;79.60;;;;;;4993886;28;20069;-76
2023/12/08 10:22:45;;;;;;;7.93;5.90;;;6.20;79.50;;;;;;4978132;28;20120;-76
2023/12/08 10:25:14;;;;;;;7.70;5.53;;;6.20;79.50;;;;;;4994157;28;20101;-76
2023/12/08 10:27:39;;;;;;;7.63;5.47;;;6.20;79.50;;;;;;4977849;28;20110;-76
2023/12/08 10:30:06;;;;;;;9.20;5.78;;;6.20;79.50;;;;;;4994056;28;20129;-75
2023/12/08 10:32:33;;;;;;;7.57;5.40;;;6.20;79.50;;;;;;4978139;28;20034;-74
2023/12/08 10:34:59;;;;;;;7.75;5.60;;;6.30;79.60;;;;;;4993741;28;20045;-76
2023/12/08 10:37:24;;;;;;;7.50;5.80;;;6.20;79.50;;;;;;4994236;28;20512;-74
2023/12/08 10:39:51;;;;;;;9.38;6.47;;;6.30;79.50;;;;;;4977778;28;20057;-75
2023/12/08 10:42:17;;;;;;;7.70;5.40;;;6.30;79.50;;;;;;4977734;28;20383;-73
2023/12/08 10:44:45;;;;;;;9.88;6.45;;;6.30;79.50;;;;;;4994114;28;20032;-75
2023/12/08 10:47:12;;;;;;;9.57;6.35;;;6.30;79.50;;;;;;4977962;28;20030;-76
2023/12/08 10:49:39;;;;;;;8.73;6.15;;;6.30;79.50;;;;;;4977499;28;20030;-75
2023/12/08 10:52:07;;;;;;;8.88;6.50;;;6.30;79.40;;;;;;4977430;28;20038;-75
2023/12/08 10:54:32;;;;;;;9.20;6.57;;;6.30;79.40;;;;;;4994595;28;20352;-75
2023/12/08 10:56:58;;;;;;;8.82;6.60;;;6.40;79.50;;;;;;4993538;28;20053;-75
2023/12/08 10:59:25;;;;;;;9.73;6.07;;;6.40;79.40;;;;;;4993431;28;20058;-76
2023/12/08 11:01:54;;;;;;;8.82;5.63;;;6.40;79.40;;;;;;4993825;28;20070;-76
2023/12/08 11:04:21;;;;;;;8.73;6.18;;;6.40;79.40;;;;;;4993109;28;20046;-73
2023/12/08 11:07:13;;;;;;;9.38;6.63;;;6.40;79.40;;;;;;4992429;28;20034;-75
2023/12/08 11:09:40;;;;;;;9.30;6.78;;;6.40;79.40;;;;;;4986624;28;20503;-75
2023/12/08 11:12:10;;;;;;;8.77;6.18;;;6.40;79.30;;;;;;4977026;28;20022;-76
2023/12/08 11:14:47;;;;;;;8.85;6.40;;;6.40;79.30;;;;;;4994091;28;20039;-76
2023/12/08 11:17:16;;;;;;;8.88;6.80;;;6.40;80.00;;;;;;4994264;28;20027;-75
2023/12/08 11:19:43;;;;;;;9.55;6.20;;;6.50;79.30;;;;;;5008955;28;20077;-76
2023/12/08 11:22:10;;;;;;;9.40;6.20;;;6.50;79.30;;;;;;4976883;28;20037;-75
2023/12/08 11:24:37;;;;;;;8.60;6.35;;;6.50;79.30;;;;;;4976950;28;20034;-75
2023/12/08 11:27:27;;;;;;;9.35;6.53;;;6.50;79.20;;;;;;4976865;28;20443;-77
2023/12/08 11:30:05;;;;;;;9.23;6.15;;;6.50;79.30;;;;;;4993176;28;20041;-73
2023/12/08 11:32:51;;;;;;;10.07;6.35;;;6.60;79.30;;;;;;4993180;28;20105;-74
2023/12/08 11:35:18;;;;;;;9.52;6.45;;;6.60;79.30;;;;;;4993046;28;20030;-74
2023/12/08 11:37:45;;;;;;;9.93;6.97;;;6.60;79.20;;;;;;4976405;28;20114;-75
2023/12/08 11:40:11;;;;;;;11.75;7.28;;;6.60;79.20;;;;;;4976235;28;20034;-75
2023/12/08 11:42:45;;;;;;;9.45;6.85;;;6.60;79.20;;;;;;4976666;28;20026;-75
2023/12/08 11:45:11;;;;;;;9.90;6.85;;;6.70;79.20;;;;;;4993507;28;20030;-75
2023/12/08 11:47:38;;;;;;;11.48;7.53;;;6.70;79.10;;;;;;4976562;28;20096;-75
2023/12/08 11:50:05;;;;;;;11.43;8.00;;;6.70;79.20;;;;;;4994181;28;20038;-76
2023/12/08 11:52:36;;;;;;;11.85;7.57;;;6.70;79.10;;;;;;4976422;28;20054;-76
2023/12/08 11:55:20;;;;;;;10.15;7.07;;;6.80;79.10;;;;;;4976670;28;20093;-75
2023/12/08 11:57:54;;;;;;;11.38;7.50;;;6.70;79.00;;;;;;4976885;28;20430;-75
2023/12/08 12:00:22;;;;;;;11.55;8.32;;;6.70;79.00;;;;;;4993744;28;20045;-75
2023/12/08 12:02:49;;;;;;;11.77;7.30;;;6.80;79.00;;;;;;5008378;28;20026;-75
2023/12/08 12:05:16;;;;;;;12.40;7.93;;;6.80;79.00;;;;;;4976391;28;20062;-75
2023/12/08 12:07:50;;;;;;;11.63;7.65;;;6.80;79.00;;;;;;4976988;28;20023;-74
2023/12/08 12:10:35;;;;;;;12.17;7.87;;;6.80;79.00;;;;;;4992772;28;20034;-75
2023/12/08 12:13:16;;;;;;;12.80;8.07;;;6.90;79.10;;;;;;4976039;28;20026;-75
2023/12/08 12:15:42;;;;;;;12.60;8.20;;;6.90;79.00;;;;;;4992523;28;20033;-74
2023/12/08 12:18:09;;;;;;;12.75;8.55;;;6.90;79.00;;;;;;4994045;28;20022;-73
2023/12/08 12:20:38;;;;;;;11.90;8.10;;;6.90;79.00;;;;;;4998086;28;20118;-75
2023/12/08 12:23:04;;;;;;;11.95;7.30;;;6.90;79.00;;;;;;4996718;28;20030;-75
2023/12/08 12:25:31;;;;;;;12.20;8.38;;;6.90;78.90;;;;;;4996296;28;20023;-75
2023/12/08 12:27:57;;;;;;;11.60;7.97;;;7.00;78.90;;;;;;4996280;28;20105;-75
2023/12/08 12:30:23;;;;;;;13.40;8.60;;;7.00;78.90;;;;;;4997703;28;20042;-75
2023/12/08 12:32:49;;;;;;;13.18;8.65;;;7.00;78.90;;;;;;4980809;28;20470;-75
2023/12/08 12:35:16;;;;;;;13.85;8.55;;;7.00;78.90;;;;;;4980477;28;20034;-74
2023/12/08 12:37:42;;;;;;;12.98;8.20;;;7.10;78.90;;;;;;4997062;28;20034;-75
2023/12/08 12:40:10;;;;;;;13.68;8.38;;;7.10;78.90;;;;;;4980045;28;20463;-75
2023/12/08 12:42:41;;;;;;;11.38;7.63;;;7.10;78.90;;;;;;4980636;28;20117;-76
2023/12/08 12:45:09;;;;;;;13.73;8.93;;;7.10;78.90;;;;;;4979834;28;20125;-75
2023/12/08 12:47:34;;;;;;;12.57;9.13;;;7.10;78.90;;;;;;4995728;28;20072;-75
2023/12/08 12:50:08;;;;;;;13.35;8.25;;;7.10;78.90;;;;;;4996183;28;20066;-75
2023/12/08 12:52:40;;;;;;;12.10;8.07;;;7.20;78.90;;;;;;4995743;28;20030;-76